Flight Track Log - Related Links

Times and Time Zones

All times are in EST time to prevent confusion due to time zone crossing. See the UPS1269 flight status page for this flight to view local times or setup timezone preferences in your user account.

Time Position Orientation Groundspeed Altitude Reporting Facility
EST Latitude Longitude Course Direction KTS MPH feet Rate Location/Type
Tue 10:59:00 PM 36.8425 -80.0013 188° South  Level FlightAware Approximate
Tue 11:00:00 PM 36.7746 -80.0126 188° South  Level FlightAware Approximate
Tue 11:01:00 PM 36.7064 -80.0167 180° South  Level FlightAware Approximate
Tue 11:02:00 PM 36.6380 -80.0132 176° South  Level FlightAware Approximate
Tue 11:03:00 PM 36.5697 -80.0079 176° South  Level FlightAware Approximate
Tue 11:04:00 PM 36.5014 -80.0027 176° South  Level FlightAware Approximate
Tue 11:05:00 PM 36.4330 -79.9979 174° South  Level FlightAware Approximate
Tue 11:06:00 PM 36.3649 -79.9894 174° South  Level FlightAware Approximate
Tue 11:07:00 PM 36.2967 -79.9833 180° South  Level FlightAware Approximate
Tue 11:08:00 PM 36.2293 -79.9698 169° South  Level FlightAware Approximate
Tue 11:09:00 PM 36.1618 -79.9557 171° South  Level FlightAware Approximate
Tue 11:10:00 PM 36.1000 -79.9333 158° South  Level FlightAware Approximate
Tue 11:11:00 PM 36.1013 -79.9411 158° South  Level Estimated
Tue 11:12:00 PM 36.1000 -79.9333 158° South  Level FlightAware Approximate
Tue 11:13:00 PM 36.1013 -79.9411 158° South  Level Estimated
Tue 11:14:00 PM 36.1000 -79.9333 158° South  Level FlightAware Approximate
Tue 11:15:00 PM 36.1013 -79.9411 158° South  Level Estimated
Tue 11:16:00 PM 36.1000 -79.9333 158° South  Level FlightAware Approximate
Tue 11:17:00 PM 36.1013 -79.9411 158° South  Level Estimated
Tue 11:18:00 PM 36.1000 -79.9333 158° South  Level FlightAware Approximate
Tue 11:19:00 PM 36.1013 -79.9411 158° South  Level Estimated

Login

Don't have an account? Register now (free) for customized features, flight alerts, and more!